Overview Statistics Trail Chart Weather Telemetry Raw packets
 

This is the latest recevied weather packets stored in our database for station/object KE5QKR. If no packets are shown the sender has not sent any weather packets the latest 10 day(s).

<< 7 8 9 10 11 12 13 >>
Time Temp. Humidity Pressure Rain* Wind** Luminosity Snow
1777906625 22.22° C 56% 1016.5 hPa 0 mm - 610 W/m² -
1777906320 21.67° C 58% 1016.8 hPa 0 mm - 598 W/m² -
1777906017 21.67° C 59% 1016.6 hPa 0 mm - 583 W/m² -
1777905714 21.67° C 61% 1016.9 hPa 0 mm - 569 W/m² -
1777905410 21.67° C 61% 1016.6 hPa 0 mm - 553 W/m² -
1777905109 21.67° C 60% 1016.6 hPa 0 mm - 537 W/m² -
1777904805 21.11° C 63% 1016.8 hPa 0 mm - 523 W/m² -
1777904502 21.11° C 64% 1016.6 hPa 0 mm - 506 W/m² -
1777904199 21.11° C 66% 1016.7 hPa 0 mm - 488 W/m² -
1777903896 21.11° C 67% 1016.8 hPa 0 mm - 473 W/m² -
1777903593 21.67° C 70% 1016.8 hPa 0 mm - 454 W/m² -
1777903289 21.11° C 68% 1016.8 hPa 0 mm - 438 W/m² -
1777902986 20° C 74% 1016.8 hPa 0 mm - 420 W/m² -
1777902682 20° C 74% 1016.8 hPa 0 mm - 402 W/m² -
1777902380 19.44° C 75% 1016.9 hPa 0 mm - 381 W/m² -
1777902076 20° C 76% 1016.7 hPa 0 mm - 362 W/m² -
1777901775 19.44° C 77% 1017 hPa 0 mm - 341 W/m² -
1777901471 19.44° C 76% 1016.9 hPa 0 mm - 442 W/m² -
1777901169 18.33° C 79% 1016.9 hPa 0 mm - 472 W/m² -
1777900867 17.78° C 79% 1016.9 hPa 0 mm - 500 W/m² -
1777900564 16.67° C 87% 1016.8 hPa 0 mm - 402 W/m² -
1777900261 16.11° C 96% 1017 hPa 0 mm - 297 W/m² -
1777899957 15° C 99% 1017 hPa 0 mm - 207 W/m² -
1777899654 14.44° C 99% 1016.9 hPa 0 mm - 182 W/m² -
1777899352 15.56° C 99% 1016.8 hPa 0 mm - 149 W/m² -

* Rain latest hour (hover to see other rain measurements)
** Current wind speed in m/s (hover to see current wind gust speed)